• 1385014 10153382300060425 128216538 n
  • 3
  • 6
  • 7
  • 1
  • 10
  • 未命名
  • 121
  • 55
  • 2
  • cargo

Click here and log in to see your monthly flight duties. 請按此登入個人班表區

Welcome aboard

Current Weather

[source: ADDS]
METAR
RCTP 251800Z 18003KT 9999 FEW020 SCT060 BKN180 23/20 Q1016 NOSIG RMK A3001 =
TAF
TAF RCTP 251700Z 2518/2624 03010KT 9999 FEW015 BKN032 BKN060 TEMPO 2518/2524 12005KT BECMG 2612/2614 02015KT TEMPO 2618/2624 02017G27KT =